createdAt,value
2019-01-21T00:01:02.412Z,2.55
2019-01-21T00:02:05.712Z,2.54
2019-01-21T00:03:14.286Z,2.54
2019-01-21T00:04:14.041Z,2.56
2019-01-21T00:05:17.328Z,2.57
2019-01-21T00:06:20.690Z,2.56
2019-01-21T00:07:24.049Z,2.49
2019-01-21T00:08:27.442Z,2.48
2019-01-21T00:09:30.742Z,2.51
2019-01-21T00:10:34.105Z,2.53
2019-01-21T00:11:37.742Z,2.53
2019-01-21T00:12:41.433Z,2.55
2019-01-21T00:13:44.725Z,2.54
2019-01-21T00:14:48.061Z,2.54
2019-01-21T00:15:51.443Z,2.49
2019-01-21T00:16:54.838Z,2.42
2019-01-21T00:17:58.124Z,2.38
2019-01-21T00:19:01.414Z,2.35
2019-01-21T00:20:06.780Z,2.40
2019-01-21T00:21:10.080Z,2.41
2019-01-21T00:22:13.370Z,2.45
2019-01-21T00:23:16.666Z,2.48
2019-01-21T00:24:19.969Z,2.50
2019-01-21T00:25:23.295Z,2.50
2019-01-21T00:26:26.582Z,2.47
2019-01-21T00:27:29.870Z,2.43
2019-01-21T00:28:33.163Z,2.44
2019-01-21T00:29:36.459Z,2.44
2019-01-21T00:30:39.779Z,2.49
2019-01-21T00:31:43.169Z,2.50
2019-01-21T00:32:46.443Z,2.50
2019-01-21T00:33:49.741Z,2.50
2019-01-21T00:34:53.053Z,2.50
2019-01-21T00:35:56.341Z,2.56
2019-01-21T00:37:03.614Z,2.53
2019-01-21T00:38:04.657Z,2.57
2019-01-21T00:39:07.954Z,2.57
2019-01-21T00:40:13.785Z,2.58
2019-01-21T00:41:17.117Z,2.56
2019-01-21T00:42:20.408Z,2.56
2019-01-21T00:43:23.713Z,2.53
2019-01-21T00:44:27.010Z,2.56
2019-01-21T00:45:30.302Z,2.49
2019-01-21T00:46:33.625Z,2.49
2019-01-21T00:47:36.990Z,2.54
2019-01-21T00:48:40.285Z,2.60
2019-01-21T00:49:43.607Z,2.62
2019-01-21T00:50:46.967Z,2.63
2019-01-21T00:51:50.302Z,2.61
2019-01-21T00:52:53.931Z,2.57
2019-01-21T00:53:57.228Z,2.57
2019-01-21T00:55:00.527Z,2.65
2019-01-21T00:56:03.831Z,2.67
2019-01-21T00:57:07.206Z,2.59
2019-01-21T00:58:10.554Z,2.60
2019-01-21T00:59:13.856Z,2.65
2019-01-21T01:00:20.160Z,2.59
2019-01-21T01:01:23.841Z,2.61
2019-01-21T01:02:27.162Z,2.59
2019-01-21T01:03:30.528Z,2.53
2019-01-21T01:04:33.899Z,2.56
2019-01-21T01:05:37.205Z,2.55
2019-01-21T01:06:40.500Z,2.50
2019-01-21T01:07:43.827Z,2.52
2019-01-21T01:08:47.119Z,2.53
2019-01-21T01:09:50.412Z,2.50
2019-01-21T01:10:53.786Z,2.40
2019-01-21T01:11:57.084Z,2.41
2019-01-21T01:13:00.403Z,2.37
2019-01-21T01:14:03.696Z,2.33
2019-01-21T01:15:09.331Z,2.25
2019-01-21T01:16:12.625Z,2.17
2019-01-21T01:17:15.986Z,2.12
2019-01-21T01:18:19.322Z,2.13
2019-01-21T01:19:22.606Z,2.12
2019-01-21T01:20:25.902Z,2.11
2019-01-21T01:21:29.189Z,2.11
2019-01-21T01:22:32.489Z,2.11
2019-01-21T01:23:35.851Z,2.13
2019-01-21T01:24:39.141Z,2.12
2019-01-21T01:25:42.433Z,2.08
2019-01-21T01:26:45.726Z,2.06
2019-01-21T01:27:49.012Z,2.08
2019-01-21T01:28:52.343Z,2.11
2019-01-21T01:29:56.082Z,2.20
2019-01-21T01:30:59.371Z,2.21
2019-01-21T01:32:02.673Z,2.19
2019-01-21T01:33:05.966Z,2.20
2019-01-21T01:34:09.285Z,2.18
2019-01-21T01:35:14.026Z,2.18
2019-01-21T01:36:17.323Z,2.17
2019-01-21T01:37:20.616Z,2.14
2019-01-21T01:38:23.908Z,2.15
2019-01-21T01:39:27.241Z,2.18
2019-01-21T01:40:30.603Z,2.23
2019-01-21T01:41:33.904Z,2.24
2019-01-21T01:42:37.196Z,2.29
2019-01-21T01:43:40.489Z,2.29
2019-01-21T01:44:43.834Z,2.24
2019-01-21T01:45:47.126Z,2.19
2019-01-21T01:46:50.423Z,2.18
2019-01-21T01:47:59.547Z,2.17
2019-01-21T01:49:02.836Z,2.20
2019-01-21T01:50:07.815Z,2.21
2019-01-21T01:51:11.107Z,2.22
2019-01-21T01:52:14.401Z,2.24
2019-01-21T01:53:17.700Z,2.31
2019-01-21T01:54:21.375Z,2.34
2019-01-21T01:55:25.169Z,2.41
2019-01-21T01:56:28.470Z,2.39
2019-01-21T01:57:31.763Z,2.39
2019-01-21T01:58:35.050Z,2.40
2019-01-21T01:59:38.349Z,2.44
2019-01-21T02:00:41.663Z,2.43
2019-01-21T02:01:45.027Z,2.43
2019-01-21T02:02:48.329Z,2.47
2019-01-21T02:03:51.630Z,2.51
2019-01-21T02:04:54.935Z,2.50
2019-01-21T02:05:58.254Z,2.48
2019-01-21T02:07:01.552Z,2.55
2019-01-21T02:08:05.354Z,2.63
2019-01-21T02:09:09.062Z,2.66
2019-01-21T02:10:13.762Z,2.65
2019-01-21T02:11:17.098Z,2.66
2019-01-21T02:12:20.390Z,2.65
2019-01-21T02:13:24.028Z,2.68
2019-01-21T02:14:27.318Z,2.64
2019-01-21T02:15:30.607Z,2.52
2019-01-21T02:16:34.053Z,2.48
2019-01-21T02:17:37.355Z,2.52
2019-01-21T02:18:40.639Z,2.62
2019-01-21T02:19:43.987Z,2.65
2019-01-21T02:20:47.290Z,2.64
2019-01-21T02:21:50.967Z,2.70
2019-01-21T02:22:55.400Z,2.69
2019-01-21T02:24:01.954Z,2.61
2019-01-21T02:25:06.685Z,2.54
2019-01-21T02:26:10.674Z,2.52
2019-01-21T02:27:14.792Z,2.53
2019-01-21T02:28:27.445Z,2.52
2019-01-21T02:29:34.282Z,2.57
2019-01-21T02:30:43.725Z,2.49
2019-01-21T02:32:08.600Z,2.47
2019-01-21T02:33:24.037Z,2.49
2019-01-21T02:34:53.840Z,2.53
2019-01-21T02:36:00.394Z,2.52
2019-01-21T02:37:12.435Z,2.42
2019-01-21T02:38:37.069Z,2.37
2019-01-21T02:40:00.385Z,2.37
2019-01-21T02:41:09.947Z,2.31
2019-01-21T02:42:28.412Z,2.29
2019-01-21T02:43:34.970Z,2.24
2019-01-21T02:44:56.633Z,2.22
2019-01-21T02:46:05.902Z,2.23
2019-01-21T02:47:15.627Z,2.35
2019-01-21T02:48:28.111Z,2.40
2019-01-21T02:49:51.404Z,2.42
2019-01-21T02:51:03.817Z,2.44
2019-01-21T02:52:16.692Z,2.45
2019-01-21T02:53:29.561Z,2.47
2019-01-21T02:54:36.120Z,2.48
2019-01-21T02:55:51.110Z,2.42
2019-01-21T02:57:03.609Z,2.40
2019-01-21T02:58:25.249Z,2.35
2019-01-21T02:59:35.391Z,2.33
2019-01-21T03:00:44.870Z,2.37
2019-01-21T03:02:09.408Z,2.36
2019-01-21T03:03:32.828Z,2.25
2019-01-21T03:04:56.218Z,2.28
2019-01-21T03:06:14.582Z,2.34
2019-01-21T03:07:23.666Z,2.44
2019-01-21T03:08:45.121Z,2.41
2019-01-21T03:09:54.754Z,2.35
2019-01-21T03:11:16.387Z,2.25
2019-01-21T03:12:50.248Z,2.28
2019-01-21T03:14:02.401Z,2.21
2019-01-21T03:15:24.098Z,2.27
2019-01-21T03:16:42.014Z,2.29
2019-01-21T03:18:08.243Z,2.18
2019-01-21T03:19:14.868Z,2.11
2019-01-21T03:20:27.060Z,2.21
2019-01-21T03:21:56.556Z,2.28
2019-01-21T03:23:05.818Z,2.24
2019-01-21T03:24:30.093Z,2.16
2019-01-21T03:25:56.094Z,2.19
2019-01-21T03:27:25.408Z,2.12
2019-01-21T03:28:38.062Z,2.06
2019-01-21T03:30:09.696Z,2.05
2019-01-21T03:31:35.754Z,2.06
2019-01-21T03:33:08.171Z,2.16
2019-01-21T03:34:23.985Z,2.12
2019-01-21T03:35:45.632Z,2.09
2019-01-21T03:36:58.207Z,2.06
2019-01-21T03:38:10.381Z,2.06
2019-01-21T03:39:16.934Z,2.04
2019-01-21T03:40:52.360Z,1.97
2019-01-21T03:42:00.562Z,1.90
2019-01-21T03:43:21.947Z,1.89
2019-01-21T03:44:40.860Z,1.85
2019-01-21T03:46:08.651Z,1.84
2019-01-21T03:47:21.068Z,1.81
2019-01-21T03:48:27.634Z,1.76
2019-01-21T03:49:36.713Z,1.75
2019-01-21T03:50:52.391Z,1.77
2019-01-21T03:52:13.326Z,1.81
2019-01-21T03:53:44.351Z,1.84
2019-01-21T03:54:48.743Z,1.89
2019-01-21T03:55:55.538Z,1.94
2019-01-21T03:57:02.142Z,2.01
2019-01-21T03:58:20.750Z,2.06
2019-01-21T03:59:36.324Z,2.10
2019-01-21T04:00:45.714Z,2.14
2019-01-21T04:02:22.491Z,2.13
2019-01-21T04:03:45.441Z,2.17
2019-01-21T04:04:52.004Z,2.18
2019-01-21T04:06:10.150Z,2.21
2019-01-21T04:07:16.778Z,2.17
2019-01-21T04:08:29.490Z,2.17
2019-01-21T04:09:44.856Z,2.18
2019-01-21T04:10:57.234Z,2.16
2019-01-21T04:12:11.909Z,2.13
2019-01-21T04:13:41.176Z,2.15
2019-01-21T04:14:56.599Z,2.19
2019-01-21T04:16:09.468Z,2.13
2019-01-21T04:17:28.161Z,2.11
2019-01-21T04:18:49.772Z,2.14
2019-01-21T04:20:10.810Z,2.21
2019-01-21T04:21:23.188Z,2.22
2019-01-21T04:22:29.748Z,2.12
2019-01-21T04:23:50.919Z,2.06
2019-01-21T04:25:03.044Z,2.05
2019-01-21T04:26:30.537Z,2.08
2019-01-21T04:27:54.537Z,2.17
2019-01-21T04:29:06.883Z,2.39
2019-01-21T04:30:21.985Z,2.56
2019-01-21T04:31:48.215Z,2.54
2019-01-21T04:33:01.089Z,2.56
2019-01-21T04:34:08.024Z,2.43
2019-01-21T04:35:35.776Z,2.32
2019-01-21T04:36:54.005Z,2.16
2019-01-21T04:38:09.950Z,2.12
2019-01-21T04:39:19.194Z,2.18
2019-01-21T04:40:28.846Z,2.24
2019-01-21T04:41:53.521Z,2.30
2019-01-21T04:43:02.960Z,2.35
2019-01-21T04:44:24.745Z,2.34
2019-01-21T04:45:37.681Z,2.30
2019-01-21T04:47:03.733Z,2.26
2019-01-21T04:48:21.675Z,2.26
2019-01-21T04:49:30.805Z,2.26
2019-01-21T04:50:55.737Z,2.19
2019-01-21T04:52:20.478Z,2.17
2019-01-21T04:53:48.545Z,2.13
2019-01-21T04:54:57.830Z,2.07
2019-01-21T04:56:22.820Z,2.02
2019-01-21T04:57:46.174Z,2.07
2019-01-21T04:59:14.229Z,2.21
2019-01-21T05:00:31.339Z,2.17
2019-01-21T05:01:53.269Z,2.11
2019-01-21T05:03:14.987Z,2.15
2019-01-21T05:04:44.250Z,2.14
2019-01-21T05:06:05.699Z,2.14
2019-01-21T05:07:30.282Z,2.13
2019-01-21T05:08:42.565Z,2.11
2019-01-21T05:10:12.008Z,2.13
2019-01-21T05:11:30.338Z,2.18
2019-01-21T05:12:39.695Z,2.27
2019-01-21T05:13:46.334Z,2.24
2019-01-21T05:15:20.294Z,2.22
2019-01-21T05:16:35.610Z,2.18
2019-01-21T05:17:48.031Z,2.21
2019-01-21T05:18:57.216Z,2.25
2019-01-21T05:20:37.879Z,2.18
2019-01-21T05:21:46.993Z,2.13
2019-01-21T05:22:53.550Z,2.13
2019-01-21T05:24:22.500Z,2.18
2019-01-21T05:25:29.062Z,2.18
2019-01-21T05:26:50.729Z,2.14
2019-01-21T05:28:18.156Z,2.11
2019-01-21T05:29:45.955Z,2.12
2019-01-21T05:30:55.786Z,2.17
2019-01-21T05:32:14.527Z,2.23
2019-01-21T05:33:33.045Z,2.26
2019-01-21T05:34:51.523Z,2.32
2019-01-21T05:36:14.749Z,2.37
2019-01-21T05:37:27.031Z,2.36
2019-01-21T05:38:36.567Z,2.36
2019-01-21T05:39:55.228Z,2.35
2019-01-21T05:41:10.394Z,2.32
2019-01-21T05:42:31.663Z,2.26
2019-01-21T05:43:44.013Z,2.27
2019-01-21T05:45:25.572Z,2.30
2019-01-21T05:46:40.535Z,2.30
2019-01-21T05:48:01.777Z,2.25
2019-01-21T05:49:30.932Z,2.30
2019-01-21T05:50:58.811Z,2.32
2019-01-21T05:52:23.384Z,2.30
2019-01-21T05:53:46.270Z,2.31
2019-01-21T05:55:12.129Z,2.36
2019-01-21T05:56:24.376Z,2.26
2019-01-21T05:57:42.956Z,2.21
2019-01-21T05:59:10.964Z,2.25
2019-01-21T06:00:19.954Z,2.25
2019-01-21T06:01:52.688Z,2.23
2019-01-21T06:03:17.556Z,2.25
2019-01-21T06:04:43.274Z,2.32
2019-01-21T06:06:06.457Z,2.32
2019-01-21T06:07:13.015Z,2.40
2019-01-21T06:08:28.980Z,2.34
2019-01-21T06:09:51.787Z,2.35
2019-01-21T06:11:01.120Z,2.29
2019-01-21T06:12:23.328Z,2.26
2019-01-21T06:13:35.761Z,2.24
2019-01-21T06:14:54.600Z,2.22
2019-01-21T06:16:07.311Z,2.20
2019-01-21T06:17:28.941Z,2.25
2019-01-21T06:18:47.444Z,2.18
2019-01-21T06:20:03.185Z,2.13
2019-01-21T06:21:21.659Z,2.14
2019-01-21T06:22:31.006Z,2.11
2019-01-21T06:23:56.261Z,2.09
2019-01-21T06:25:05.743Z,2.07
2019-01-21T06:26:12.298Z,2.10
2019-01-21T06:27:37.029Z,2.16
2019-01-21T06:28:58.023Z,2.13
2019-01-21T06:30:21.000Z,2.22
2019-01-21T06:31:42.668Z,2.18
2019-01-21T06:33:16.270Z,2.24
2019-01-21T06:34:28.417Z,2.30
2019-01-21T06:35:46.705Z,2.30
2019-01-21T06:36:53.269Z,2.39
2019-01-21T06:38:08.572Z,2.49
2019-01-21T06:39:36.094Z,2.56
2019-01-21T06:40:45.609Z,2.58
2019-01-21T06:42:15.068Z,2.52
2019-01-21T06:43:30.377Z,2.45
2019-01-21T06:44:39.720Z,2.44
2019-01-21T06:46:15.258Z,2.38
2019-01-21T06:47:36.700Z,2.28
2019-01-21T06:49:04.683Z,2.30
2019-01-21T06:50:34.085Z,2.41
2019-01-21T06:51:57.402Z,2.49
2019-01-21T06:53:21.963Z,2.53
2019-01-21T06:54:31.296Z,2.46
2019-01-21T06:55:46.720Z,2.44
2019-01-21T06:57:13.256Z,2.45
2019-01-21T06:58:32.021Z,2.52
2019-01-21T06:59:56.443Z,2.45
2019-01-21T07:01:22.770Z,2.42
2019-01-21T07:02:41.163Z,2.43
2019-01-21T07:04:13.499Z,2.47
2019-01-21T07:05:48.861Z,2.51
2019-01-21T07:07:03.891Z,2.51
2019-01-21T07:08:19.432Z,2.47
2019-01-21T07:09:34.618Z,2.53
2019-01-21T07:10:44.012Z,2.58
2019-01-21T07:11:53.618Z,2.54
2019-01-21T07:13:00.189Z,2.55
2019-01-21T07:14:24.920Z,2.58
2019-01-21T07:15:31.523Z,2.68
2019-01-21T07:16:47.184Z,2.73
2019-01-21T07:17:59.970Z,2.69
2019-01-21T07:19:23.420Z,2.67
2019-01-21T07:20:29.979Z,2.70
2019-01-21T07:21:55.536Z,2.74
2019-01-21T07:23:23.092Z,2.74
2019-01-21T07:24:46.381Z,2.76
2019-01-21T07:26:22.858Z,2.77
2019-01-21T07:27:32.161Z,2.81
2019-01-21T07:28:43.870Z,2.82
2019-01-21T07:30:05.279Z,2.77
2019-01-21T07:31:26.230Z,2.75
2019-01-21T07:32:41.566Z,2.81
2019-01-21T07:33:48.168Z,2.94
2019-01-21T07:35:16.134Z,3.05
2019-01-21T07:36:22.694Z,3.04
2019-01-21T07:37:41.280Z,3.05
2019-01-21T07:38:50.647Z,3.09
2019-01-21T07:40:16.841Z,3.13
2019-01-21T07:41:32.624Z,3.16
2019-01-21T07:43:09.416Z,3.13
2019-01-21T07:44:38.901Z,3.06
2019-01-21T07:45:57.863Z,2.99
2019-01-21T07:47:16.835Z,2.98
2019-01-21T07:48:23.423Z,2.99
2019-01-21T07:49:48.287Z,3.00
2019-01-21T07:51:28.178Z,2.99
2019-01-21T07:52:52.877Z,3.00
2019-01-21T07:53:59.541Z,3.02
2019-01-21T07:55:06.107Z,3.06
2019-01-21T07:56:32.399Z,3.07
2019-01-21T07:57:54.185Z,3.15
2019-01-21T07:59:12.371Z,3.20
2019-01-21T08:00:24.941Z,3.17
2019-01-21T08:01:43.147Z,3.22
2019-01-21T08:02:49.713Z,3.26
2019-01-21T08:04:16.797Z,3.29
2019-01-21T08:05:26.164Z,3.35
2019-01-21T08:06:38.358Z,3.39
2019-01-21T08:07:47.662Z,3.35
2019-01-21T08:08:56.977Z,3.38
2019-01-21T08:10:06.304Z,3.42
2019-01-21T08:11:28.129Z,3.43
2019-01-21T08:12:53.109Z,3.48
2019-01-21T08:14:14.963Z,3.52
2019-01-21T08:15:54.878Z,3.52
2019-01-21T08:17:07.448Z,3.47
2019-01-21T08:18:48.845Z,3.43
2019-01-21T08:20:16.742Z,3.48
2019-01-21T08:21:50.770Z,3.42
2019-01-21T08:23:15.008Z,3.46
2019-01-21T08:24:33.431Z,3.61
2019-01-21T08:25:55.514Z,3.64
2019-01-21T08:27:19.377Z,3.60
2019-01-21T08:28:41.159Z,3.58
2019-01-21T08:29:47.723Z,3.60
2019-01-21T08:31:03.212Z,3.61
2019-01-21T08:32:28.168Z,3.63
2019-01-21T08:33:37.309Z,3.75
2019-01-21T08:35:02.062Z,3.72
2019-01-21T08:36:31.442Z,3.66
2019-01-21T08:37:43.226Z,3.57
2019-01-21T08:39:07.642Z,3.54
2019-01-21T08:40:16.894Z,3.51
2019-01-21T08:41:37.906Z,3.54
2019-01-21T08:43:13.334Z,3.64
2019-01-21T08:44:28.779Z,3.60
2019-01-21T08:45:38.522Z,3.57
2019-01-21T08:46:53.847Z,3.64
2019-01-21T08:48:22.705Z,3.58
2019-01-21T08:49:52.798Z,3.63
2019-01-21T08:51:22.007Z,3.80
2019-01-21T08:52:40.454Z,3.86
2019-01-21T08:53:49.715Z,3.97
2019-01-21T08:55:15.446Z,4.09
2019-01-21T08:56:27.783Z,4.09
2019-01-21T08:57:43.150Z,4.06
2019-01-21T08:58:52.548Z,4.02
2019-01-21T09:00:14.027Z,3.96
2019-01-21T09:01:29.630Z,3.88
2019-01-21T09:02:57.380Z,3.96
2019-01-21T09:04:18.889Z,4.09
2019-01-21T09:05:28.686Z,4.11
2019-01-21T09:06:50.547Z,4.05
2019-01-21T09:08:24.529Z,4.10
2019-01-21T09:09:33.920Z,4.22
2019-01-21T09:10:40.484Z,4.37
2019-01-21T09:12:08.487Z,4.39
2019-01-21T09:13:20.939Z,4.48
2019-01-21T09:14:30.029Z,4.37
2019-01-21T09:15:36.588Z,4.37
2019-01-21T09:16:58.367Z,4.37
2019-01-21T09:18:07.594Z,4.29
2019-01-21T09:19:23.110Z,4.18
2019-01-21T09:20:45.945Z,4.20
2019-01-21T09:22:07.460Z,4.28
2019-01-21T09:23:35.161Z,4.12
2019-01-21T09:24:59.590Z,4.13
2019-01-21T09:26:24.427Z,4.26
2019-01-21T09:27:47.592Z,4.28
2019-01-21T09:29:09.063Z,4.30
2019-01-21T09:30:30.789Z,4.40
2019-01-21T09:31:37.396Z,4.45
2019-01-21T09:32:46.545Z,4.45
2019-01-21T09:33:55.851Z,4.50
2019-01-21T09:35:30.854Z,4.56
2019-01-21T09:36:49.438Z,4.45
2019-01-21T09:38:15.488Z,4.43
2019-01-21T09:39:46.520Z,4.31
2019-01-21T09:41:08.339Z,4.28
2019-01-21T09:42:17.614Z,4.35
2019-01-21T09:43:26.895Z,4.35
2019-01-21T09:44:39.438Z,4.41
2019-01-21T09:45:48.920Z,4.43
2019-01-21T09:46:51.278Z,4.39
2019-01-21T09:47:53.722Z,4.37
2019-01-21T09:48:56.039Z,4.31
2019-01-21T09:49:59.409Z,4.25
2019-01-21T09:51:05.011Z,4.25
2019-01-21T09:52:08.397Z,4.26
2019-01-21T09:53:11.878Z,4.28
2019-01-21T09:54:15.232Z,4.21
2019-01-21T09:55:18.581Z,4.25
2019-01-21T09:56:22.185Z,4.31
2019-01-21T09:57:25.486Z,4.37
2019-01-21T09:58:28.980Z,4.44
2019-01-21T09:59:33.320Z,4.36
2019-01-21T10:00:36.619Z,4.37
2019-01-21T10:01:39.921Z,4.42
2019-01-21T10:02:43.216Z,4.45
2019-01-21T10:03:46.551Z,4.41
2019-01-21T10:04:50.864Z,4.34
2019-01-21T10:05:57.576Z,4.30
2019-01-21T10:07:19.440Z,4.33
2019-01-21T10:08:25.994Z,4.33
2019-01-21T10:09:41.636Z,4.38
2019-01-21T10:11:04.394Z,4.34
2019-01-21T10:12:27.619Z,4.34
2019-01-21T10:13:52.093Z,4.41
2019-01-21T10:15:16.669Z,4.38
2019-01-21T10:16:23.304Z,4.37
2019-01-21T10:17:38.665Z,4.42
2019-01-21T10:19:01.417Z,4.39
2019-01-21T10:20:10.761Z,4.33
2019-01-21T10:21:17.356Z,4.32
2019-01-21T10:22:32.959Z,4.32
2019-01-21T10:23:48.406Z,4.37
2019-01-21T10:25:06.747Z,4.36
2019-01-21T10:26:22.534Z,4.32
2019-01-21T10:27:40.584Z,4.33
2019-01-21T10:28:55.041Z,4.38
2019-01-21T10:30:10.467Z,4.45
2019-01-21T10:31:22.801Z,4.51
2019-01-21T10:32:32.438Z,4.52
2019-01-21T10:33:47.652Z,4.49
2019-01-21T10:34:54.310Z,4.44
2019-01-21T10:36:21.774Z,4.42
2019-01-21T10:37:34.577Z,4.50
2019-01-21T10:38:59.330Z,4.59
2019-01-21T10:40:26.941Z,4.57
2019-01-21T10:41:39.293Z,4.52
2019-01-21T10:42:51.428Z,4.56
2019-01-21T10:44:14.637Z,4.65
2019-01-21T10:45:37.716Z,4.68
2019-01-21T10:47:11.732Z,4.69
2019-01-21T10:48:24.188Z,4.72
2019-01-21T10:49:49.206Z,4.69
2019-01-21T10:51:04.888Z,4.68
2019-01-21T10:52:23.356Z,4.70
2019-01-21T10:53:47.971Z,4.71
2019-01-21T10:55:29.483Z,4.83
2019-01-21T10:56:42.037Z,4.94
2019-01-21T10:57:48.600Z,4.91
2019-01-21T10:59:00.837Z,4.88
2019-01-21T11:00:28.835Z,4.93
2019-01-21T11:01:56.737Z,4.88
2019-01-21T11:03:09.059Z,4.84
2019-01-21T11:04:21.728Z,4.83
2019-01-21T11:05:40.482Z,4.86
2019-01-21T11:07:11.221Z,4.97
2019-01-21T11:08:20.397Z,4.98
2019-01-21T11:09:26.974Z,4.93
2019-01-21T11:10:39.192Z,4.88
2019-01-21T11:11:54.843Z,4.87
2019-01-21T11:13:13.693Z,4.87
2019-01-21T11:14:32.400Z,4.82
2019-01-21T11:15:44.652Z,4.79
2019-01-21T11:17:13.770Z,4.87
2019-01-21T11:18:23.410Z,4.89
2019-01-21T11:19:52.718Z,4.87
2019-01-21T11:20:59.274Z,4.82
2019-01-21T11:22:06.309Z,4.74
2019-01-21T11:23:30.839Z,4.72
2019-01-21T11:25:09.722Z,4.80
2019-01-21T11:26:25.305Z,4.78
2019-01-21T11:27:37.631Z,4.75
2019-01-21T11:29:01.782Z,4.85
2019-01-21T11:30:11.131Z,4.93
2019-01-21T11:31:32.396Z,4.94
2019-01-21T11:32:59.356Z,4.95
2019-01-21T11:34:25.404Z,4.97
2019-01-21T11:35:31.958Z,4.99
2019-01-21T11:36:41.269Z,5.06
2019-01-21T11:38:12.235Z,5.11
2019-01-21T11:39:21.432Z,5.06
2019-01-21T11:40:36.441Z,5.00
2019-01-21T11:41:55.112Z,5.04
2019-01-21T11:43:16.877Z,4.99
2019-01-21T11:44:38.493Z,5.06
2019-01-21T11:46:08.895Z,5.05
2019-01-21T11:47:36.865Z,5.07
2019-01-21T11:48:59.935Z,5.06
2019-01-21T11:50:10.503Z,4.95
2019-01-21T11:51:32.979Z,4.92
2019-01-21T11:52:42.392Z,4.95
2019-01-21T11:54:16.696Z,4.97
2019-01-21T11:55:37.884Z,4.99
2019-01-21T11:56:56.393Z,5.02
2019-01-21T11:58:33.153Z,5.02
2019-01-21T11:59:51.308Z,4.98
2019-01-21T12:01:13.045Z,4.99
2019-01-21T12:02:27.932Z,4.96
2019-01-21T12:03:49.091Z,4.89
2019-01-21T12:04:55.679Z,4.95
2019-01-21T12:06:01.007Z,4.97
2019-01-21T12:07:13.349Z,4.94
2019-01-21T12:08:22.651Z,4.92
2019-01-21T12:09:32.181Z,5.02
2019-01-21T12:10:44.492Z,5.12
2019-01-21T12:11:54.011Z,5.13
2019-01-21T12:13:12.751Z,5.15
2019-01-21T12:14:31.227Z,5.12
2019-01-21T12:16:09.534Z,5.06
2019-01-21T12:17:24.682Z,5.08
2019-01-21T12:18:49.495Z,5.07
2019-01-21T12:20:16.867Z,5.17
2019-01-21T12:21:27.104Z,5.15
2019-01-21T12:22:42.200Z,5.09
2019-01-21T12:24:00.568Z,5.03
2019-01-21T12:25:28.284Z,4.94
2019-01-21T12:27:08.247Z,4.98
2019-01-21T12:28:34.482Z,4.93
2019-01-21T12:29:41.032Z,4.85
2019-01-21T12:30:47.625Z,4.85
2019-01-21T12:32:00.151Z,4.81
2019-01-21T12:33:18.852Z,4.88
2019-01-21T12:34:49.122Z,4.91
2019-01-21T12:36:10.881Z,4.89
2019-01-21T12:37:23.112Z,4.85
2019-01-21T12:38:35.438Z,4.80
2019-01-21T12:39:47.999Z,4.79
2019-01-21T12:41:21.619Z,4.82
2019-01-21T12:42:31.041Z,4.80
2019-01-21T12:43:49.118Z,4.88
2019-01-21T12:45:21.068Z,4.88
2019-01-21T12:46:30.358Z,4.91
2019-01-21T12:47:45.413Z,4.96
2019-01-21T12:49:09.944Z,4.94
2019-01-21T12:50:38.049Z,4.89
2019-01-21T12:51:59.841Z,4.81
2019-01-21T12:53:09.604Z,4.79
2019-01-21T12:54:32.632Z,4.78
2019-01-21T12:55:48.322Z,4.81
2019-01-21T12:57:09.991Z,4.82
2019-01-21T12:58:22.745Z,4.78
2019-01-21T12:59:32.124Z,4.81
2019-01-21T13:00:58.307Z,4.80
2019-01-21T13:02:20.071Z,4.80
2019-01-21T13:03:43.337Z,4.81
2019-01-21T13:05:07.998Z,4.89
2019-01-21T13:06:20.142Z,4.99
2019-01-21T13:07:32.787Z,5.08
2019-01-21T13:08:45.221Z,5.08
2019-01-21T13:10:10.146Z,5.07
2019-01-21T13:11:41.068Z,5.06
2019-01-21T13:13:05.065Z,5.04
2019-01-21T13:14:11.629Z,5.02
2019-01-21T13:15:39.228Z,4.93
2019-01-21T13:16:51.808Z,4.85
2019-01-21T13:18:01.083Z,4.91
2019-01-21T13:19:28.833Z,4.92
2019-01-21T13:20:38.323Z,4.92
2019-01-21T13:21:44.889Z,4.86
2019-01-21T13:22:51.788Z,4.77
2019-01-21T13:24:01.212Z,4.69
2019-01-21T13:25:28.930Z,4.76
2019-01-21T13:26:53.448Z,4.78
2019-01-21T13:28:05.990Z,4.73
2019-01-21T13:29:15.419Z,4.66
2019-01-21T13:30:27.908Z,4.72
2019-01-21T13:31:43.090Z,4.69
2019-01-21T13:32:52.342Z,4.66
2019-01-21T13:34:26.485Z,4.77
2019-01-21T13:35:38.945Z,4.76
2019-01-21T13:37:14.162Z,4.71
2019-01-21T13:38:26.943Z,4.72
2019-01-21T13:39:55.667Z,4.63
2019-01-21T13:41:02.250Z,4.60
2019-01-21T13:42:14.994Z,4.54
2019-01-21T13:43:45.347Z,4.59
2019-01-21T13:45:07.027Z,4.61
2019-01-21T13:46:34.732Z,4.64
2019-01-21T13:47:46.882Z,4.70
2019-01-21T13:49:02.396Z,4.65
2019-01-21T13:50:08.964Z,4.57
2019-01-21T13:51:24.444Z,4.47
2019-01-21T13:53:09.622Z,4.46
2019-01-21T13:54:30.867Z,4.44
2019-01-21T13:55:40.093Z,4.40
2019-01-21T13:56:52.503Z,4.47
2019-01-21T13:58:18.897Z,4.43
2019-01-21T13:59:34.378Z,4.38
2019-01-21T14:00:49.310Z,4.35
2019-01-21T14:02:01.981Z,4.34
2019-01-21T14:03:11.570Z,4.36
2019-01-21T14:04:27.048Z,4.35
2019-01-21T14:05:36.509Z,4.37
2019-01-21T14:06:55.147Z,4.44
2019-01-21T14:08:04.570Z,4.34
2019-01-21T14:09:16.773Z,4.36
2019-01-21T14:10:29.310Z,4.36
2019-01-21T14:11:44.807Z,4.36
2019-01-21T14:13:12.668Z,4.36
2019-01-21T14:14:25.084Z,4.35
2019-01-21T14:15:40.678Z,4.34
2019-01-21T14:17:05.456Z,4.28
2019-01-21T14:18:14.693Z,4.23
2019-01-21T14:19:26.100Z,4.21
2019-01-21T14:20:47.416Z,4.19
2019-01-21T14:21:56.809Z,4.17
2019-01-21T14:23:09.032Z,4.13
2019-01-21T14:24:21.433Z,4.10
2019-01-21T14:25:43.154Z,4.07
2019-01-21T14:27:04.941Z,4.03
2019-01-21T14:28:41.684Z,4.01
2019-01-21T14:29:53.892Z,4.02
2019-01-21T14:31:32.382Z,4.00
2019-01-21T14:32:44.930Z,3.99
2019-01-21T14:33:54.380Z,4.00
2019-01-21T14:35:15.357Z,4.00
2019-01-21T14:36:24.849Z,4.02
2019-01-21T14:37:37.336Z,4.04
2019-01-21T14:39:06.457Z,4.04
2019-01-21T14:40:31.263Z,4.02
2019-01-21T14:41:43.280Z,3.97
2019-01-21T14:43:08.515Z,3.96
2019-01-21T14:44:26.510Z,4.00
2019-01-21T14:45:50.964Z,3.94
2019-01-21T14:47:09.563Z,3.97
2019-01-21T14:48:37.490Z,4.01
2019-01-21T14:50:00.705Z,3.99
2019-01-21T14:51:19.184Z,3.98
2019-01-21T14:52:25.847Z,3.98
2019-01-21T14:53:45.037Z,3.95
2019-01-21T14:54:54.342Z,3.95
2019-01-21T14:56:21.638Z,3.95
2019-01-21T14:57:30.767Z,3.90
2019-01-21T14:58:49.275Z,3.94
2019-01-21T15:00:15.418Z,3.89
2019-01-21T15:01:21.999Z,3.90
2019-01-21T15:02:51.247Z,3.91
2019-01-21T15:04:00.699Z,3.99
2019-01-21T15:05:24.818Z,4.02
2019-01-21T15:06:52.609Z,3.96
2019-01-21T15:08:08.628Z,3.94
2019-01-21T15:09:23.798Z,3.83
2019-01-21T15:10:35.728Z,3.85
2019-01-21T15:12:15.526Z,3.91
2019-01-21T15:13:22.177Z,3.92
2019-01-21T15:14:48.197Z,3.92
2019-01-21T15:16:15.580Z,3.88
2019-01-21T15:17:40.008Z,3.88
2019-01-21T15:18:52.232Z,3.93
2019-01-21T15:19:56.665Z,3.93
2019-01-21T15:21:15.515Z,3.89
2019-01-21T15:22:36.907Z,3.84
2019-01-21T15:24:03.010Z,3.91
2019-01-21T15:25:36.940Z,3.89
2019-01-21T15:26:49.650Z,3.87
2019-01-21T15:28:02.265Z,3.81
2019-01-21T15:29:42.200Z,3.85
2019-01-21T15:30:58.059Z,3.83
2019-01-21T15:32:13.573Z,3.81
2019-01-21T15:33:44.743Z,3.80
2019-01-21T15:35:07.974Z,3.83
2019-01-21T15:36:20.314Z,3.82
2019-01-21T15:37:36.033Z,3.77
2019-01-21T15:39:05.438Z,3.79
2019-01-21T15:40:28.377Z,3.86
2019-01-21T15:41:47.175Z,3.89
2019-01-21T15:42:59.562Z,3.86
2019-01-21T15:44:11.979Z,3.83
2019-01-21T15:45:21.237Z,3.79
2019-01-21T15:46:28.286Z,3.85
2019-01-21T15:47:51.375Z,3.88
2019-01-21T15:49:03.504Z,3.83
2019-01-21T15:50:21.478Z,3.78
2019-01-21T15:51:40.065Z,3.84
2019-01-21T15:53:06.318Z,3.83
2019-01-21T15:54:25.057Z,3.89
2019-01-21T15:55:31.718Z,3.80
2019-01-21T15:56:56.811Z,3.80
2019-01-21T15:58:18.926Z,3.84
2019-01-21T15:59:20.217Z,3.80
2019-01-21T16:00:38.954Z,3.82
2019-01-21T16:01:48.094Z,3.83
2019-01-21T16:03:12.570Z,3.77
2019-01-21T16:04:31.021Z,3.78
2019-01-21T16:05:52.687Z,3.74
2019-01-21T16:06:59.253Z,3.79
2019-01-21T16:08:06.394Z,3.86
2019-01-21T16:09:19.089Z,3.86
2019-01-21T16:10:45.135Z,3.86
2019-01-21T16:12:03.664Z,3.89
2019-01-21T16:13:10.214Z,3.88
2019-01-21T16:14:15.517Z,3.89
2019-01-21T16:15:24.776Z,3.90
2019-01-21T16:16:49.919Z,3.95
2019-01-21T16:17:59.427Z,3.95
2019-01-21T16:19:06.220Z,3.90
2019-01-21T16:20:12.793Z,3.92
2019-01-21T16:21:51.518Z,3.86
2019-01-21T16:23:14.531Z,3.84
2019-01-21T16:24:36.183Z,3.89
2019-01-21T16:25:42.739Z,3.89
2019-01-21T16:27:07.168Z,3.88
2019-01-21T16:28:16.493Z,3.80
2019-01-21T16:29:23.157Z,3.80
2019-01-21T16:30:32.351Z,3.78
2019-01-21T16:31:35.883Z,3.77
2019-01-21T16:32:39.896Z,3.78
2019-01-21T16:34:10.458Z,3.76
2019-01-21T16:35:22.648Z,3.72
2019-01-21T16:36:41.152Z,3.72
2019-01-21T16:37:50.186Z,3.67
2019-01-21T16:38:56.738Z,3.69
2019-01-21T16:40:24.205Z,3.73
2019-01-21T16:41:42.956Z,3.76
2019-01-21T16:42:48.065Z,3.77